sensor_id;sensor_type;location;lat;lon;timestamp;pressure;altitude;pressure_sealevel;temperature;humidity
84443;BME280;74681;0.000;0.000;2024-02-15T00:01:09;99591.50;;;23.23;57.75
84443;BME280;74681;0.000;0.000;2024-02-15T00:03:34;99593.44;;;23.23;57.86
84443;BME280;74681;0.000;0.000;2024-02-15T00:06:01;99587.41;;;23.20;57.80
84443;BME280;74681;0.000;0.000;2024-02-15T00:08:28;99590.16;;;23.20;57.48
84443;BME280;74681;0.000;0.000;2024-02-15T00:10:53;99584.69;;;23.20;57.81
84443;BME280;74681;0.000;0.000;2024-02-15T00:13:19;99587.72;;;23.19;57.94
84443;BME280;74681;0.000;0.000;2024-02-15T00:15:44;99586.91;;;23.18;57.71
84443;BME280;74681;0.000;0.000;2024-02-15T00:18:13;99589.09;;;23.16;57.78
84443;BME280;74681;0.000;0.000;2024-02-15T00:23:19;99585.53;;;23.16;57.84
84443;BME280;74681;0.000;0.000;2024-02-15T00:25:45;99575.69;;;23.15;57.68
84443;BME280;74681;0.000;0.000;2024-02-15T00:28:13;99577.88;;;23.13;57.72
84443;BME280;74681;0.000;0.000;2024-02-15T00:30:38;99581.47;;;23.13;57.81
84443;BME280;74681;0.000;0.000;2024-02-15T00:33:04;99578.97;;;23.12;57.77
84443;BME280;74681;0.000;0.000;2024-02-15T00:35:29;99578.97;;;23.12;57.71
84443;BME280;74681;0.000;0.000;2024-02-15T00:37:54;99569.16;;;23.11;57.74
84443;BME280;74681;0.000;0.000;2024-02-15T00:40:20;99579.28;;;23.10;57.75
84443;BME280;74681;0.000;0.000;2024-02-15T00:42:46;99575.72;;;23.10;57.50
84443;BME280;74681;0.000;0.000;2024-02-15T00:45:11;99570.53;;;23.08;57.48
84443;BME280;74681;0.000;0.000;2024-02-15T00:47:37;99572.47;;;23.08;57.52
84443;BME280;74681;0.000;0.000;2024-02-15T00:50:07;99572.47;;;23.08;57.64
84443;BME280;74681;0.000;0.000;2024-02-15T00:52:32;99564.50;;;23.06;57.68
84443;BME280;74681;0.000;0.000;2024-02-15T00:54:58;99578.19;;;23.06;57.50
84443;BME280;74681;0.000;0.000;2024-02-15T00:57:23;99571.09;;;23.05;57.64
84443;BME280;74681;0.000;0.000;2024-02-15T00:59:48;99578.50;;;23.05;57.68
84443;BME280;74681;0.000;0.000;2024-02-15T01:02:14;99580.41;;;23.04;57.32
84443;BME280;74681;0.000;0.000;2024-02-15T01:04:39;99574.94;;;23.04;57.47
84443;BME280;74681;0.000;0.000;2024-02-15T01:07:04;99578.75;;;23.03;57.50
84443;BME280;74681;0.000;0.000;2024-02-15T01:09:30;99586.19;;;23.03;57.58
84443;BME280;74681;0.000;0.000;2024-02-15T01:11:55;99575.22;;;23.03;57.38
84443;BME280;74681;0.000;0.000;2024-02-15T01:14:20;99576.59;;;23.00;57.59
84443;BME280;74681;0.000;0.000;2024-02-15T01:16:46;99575.50;;;23.01;57.50
84443;BME280;74681;0.000;0.000;2024-02-15T01:19:11;99575.50;;;23.01;57.23
84443;BME280;74681;0.000;0.000;2024-02-15T01:21:37;99578.53;;;23.00;57.17
84443;BME280;74681;0.000;0.000;2024-02-15T01:24:02;99584.28;;;22.98;57.21
84443;BME280;74681;0.000;0.000;2024-02-15T01:26:28;99581.53;;;22.98;57.53
84443;BME280;74681;0.000;0.000;2024-02-15T01:28:54;99584.28;;;22.98;57.43
84443;BME280;74681;0.000;0.000;2024-02-15T01:31:20;99577.97;;;22.98;57.41
84443;BME280;74681;0.000;0.000;2024-02-15T01:33:45;99579.09;;;22.97;57.13
84443;BME280;74681;0.000;0.000;2024-02-15T01:36:17;99581.84;;;22.97;57.05
84443;BME280;74681;0.000;0.000;2024-02-15T01:38:43;99581.00;;;22.96;57.40
84443;BME280;74681;0.000;0.000;2024-02-15T01:41:08;99580.19;;;22.96;57.37
84443;BME280;74681;0.000;0.000;2024-02-15T01:43:34;99579.38;;;22.95;57.31
84443;BME280;74681;0.000;0.000;2024-02-15T01:46:00;99571.44;;;22.94;57.23
84443;BME280;74681;0.000;0.000;2024-02-15T01:48:29;99577.75;;;22.94;57.06
84443;BME280;74681;0.000;0.000;2024-02-15T01:50:55;99572.28;;;22.94;57.03
84443;BME280;74681;0.000;0.000;2024-02-15T01:53:20;99580.75;;;22.93;57.05
84443;BME280;74681;0.000;0.000;2024-02-15T01:55:46;99578.03;;;22.93;56.99
84443;BME280;74681;0.000;0.000;2024-02-15T01:58:11;99572.53;;;22.93;57.23
84443;BME280;74681;0.000;0.000;2024-02-15T02:00:37;99573.66;;;22.92;57.14
84443;BME280;74681;0.000;0.000;2024-02-15T02:03:04;99574.75;;;22.91;57.18
84443;BME280;74681;0.000;0.000;2024-02-15T02:05:30;99576.66;;;22.90;56.87
84443;BME280;74681;0.000;0.000;2024-02-15T02:07:56;99575.03;;;22.89;57.14
84443;BME280;74681;0.000;0.000;2024-02-15T02:10:26;99578.59;;;22.90;57.16
84443;BME280;74681;0.000;0.000;2024-02-15T02:12:52;99572.28;;;22.89;56.63
84443;BME280;74681;0.000;0.000;2024-02-15T02:15:18;99570.66;;;22.88;57.17
84443;BME280;74681;0.000;0.000;2024-02-15T02:17:48;99573.41;;;22.88;57.17
84443;BME280;74681;0.000;0.000;2024-02-15T02:20:13;99571.75;;;22.87;56.82
84443;BME280;74681;0.000;0.000;2024-02-15T02:22:38;99569.03;;;22.87;56.84
84443;BME280;74681;0.000;0.000;2024-02-15T02:25:06;99574.78;;;22.86;57.06
84443;BME280;74681;0.000;0.000;2024-02-15T02:27:33;99568.19;;;22.87;57.15
84443;BME280;74681;0.000;0.000;2024-02-15T02:29:59;99577.53;;;22.86;56.82
84443;BME280;74681;0.000;0.000;2024-02-15T02:32:25;99561.09;;;22.86;56.85
84443;BME280;74681;0.000;0.000;2024-02-15T02:34:51;99575.06;;;22.84;56.96
84443;BME280;74681;0.000;0.000;2024-02-15T02:37:16;99566.03;;;22.84;56.75
84443;BME280;74681;0.000;0.000;2024-02-15T02:39:42;99565.22;;;22.83;56.77
84443;BME280;74681;0.000;0.000;2024-02-15T02:42:08;99557.81;;;22.84;57.00
84443;BME280;74681;0.000;0.000;2024-02-15T02:44:33;99557.00;;;22.83;56.80
84443;BME280;74681;0.000;0.000;2024-02-15T02:46:59;99555.38;;;22.82;56.62
84443;BME280;74681;0.000;0.000;2024-02-15T02:49:24;99551.81;;;22.82;56.69
84443;BME280;74681;0.000;0.000;2024-02-15T02:51:50;99555.66;;;22.81;56.70
84443;BME280;74681;0.000;0.000;2024-02-15T02:54:15;99555.66;;;22.81;56.73
84443;BME280;74681;0.000;0.000;2024-02-15T02:56:41;99549.34;;;22.80;56.59
84443;BME280;74681;0.000;0.000;2024-02-15T02:59:08;99543.06;;;22.80;56.88
84443;BME280;74681;0.000;0.000;2024-02-15T03:01:34;99545.78;;;22.80;56.83
84443;BME280;74681;0.000;0.000;2024-02-15T03:03:59;99547.72;;;22.79;56.73
84443;BME280;74681;0.000;0.000;2024-02-15T03:06:25;99537.84;;;22.78;56.68
84443;BME280;74681;0.000;0.000;2024-02-15T03:08:50;99551.53;;;22.78;56.65
84443;BME280;74681;0.000;0.000;2024-02-15T03:11:24;99564.44;;;22.78;56.87
84443;BME280;74681;0.000;0.000;2024-02-15T03:13:50;99577.31;;;22.77;56.75
84443;BME280;74681;0.000;0.000;2024-02-15T03:16:15;99573.75;;;22.77;56.71
84443;BME280;74681;0.000;0.000;2024-02-15T03:18:42;99561.97;;;22.76;56.74
84443;BME280;74681;0.000;0.000;2024-02-15T03:21:07;99564.69;;;22.76;56.49
84443;BME280;74681;0.000;0.000;2024-02-15T03:23:36;99555.66;;;22.76;56.80
84443;BME280;74681;0.000;0.000;2024-02-15T03:26:02;99563.09;;;22.75;56.52
84443;BME280;74681;0.000;0.000;2024-02-15T03:28:28;99567.72;;;22.75;56.54
84443;BME280;74681;0.000;0.000;2024-02-15T03:30:54;99564.19;;;22.74;56.66
84443;BME280;74681;0.000;0.000;2024-02-15T03:33:20;99569.66;;;22.74;56.54
84443;BME280;74681;0.000;0.000;2024-02-15T03:43:07;99562.81;;;22.72;56.43
84443;BME280;74681;0.000;0.000;2024-02-15T03:45:33;99563.91;;;22.71;56.50
84443;BME280;74681;0.000;0.000;2024-02-15T03:47:58;99566.66;;;22.71;56.73
84443;BME280;74681;0.000;0.000;2024-02-15T03:50:23;99565.81;;;22.70;56.44
84443;BME280;74681;0.000;0.000;2024-02-15T03:52:49;99567.78;;;22.70;56.49
84443;BME280;74681;0.000;0.000;2024-02-15T03:55:15;99566.13;;;22.69;56.39
84443;BME280;74681;0.000;0.000;2024-02-15T03:57:40;99563.38;;;22.69;56.64
84443;BME280;74681;0.000;0.000;2024-02-15T04:00:06;99559.81;;;22.68;56.64
84443;BME280;74681;0.000;0.000;2024-02-15T04:02:33;99560.66;;;22.69;56.51
84443;BME280;74681;0.000;0.000;2024-02-15T04:05:00;99558.16;;;22.67;56.43
84443;BME280;74681;0.000;0.000;2024-02-15T04:07:26;99553.53;;;22.68;56.57
84443;BME280;74681;0.000;0.000;2024-02-15T04:09:52;99557.38;;;22.67;56.66
84443;BME280;74681;0.000;0.000;2024-02-15T04:12:17;99549.16;;;22.67;56.42
84443;BME280;74681;0.000;0.000;2024-02-15T04:14:46;99547.53;;;22.66;56.62
84443;BME280;74681;0.000;0.000;2024-02-15T04:17:12;99544.78;;;22.66;56.41
84443;BME280;74681;0.000;0.000;2024-02-15T04:19:46;99548.59;;;22.65;56.66
84443;BME280;74681;0.000;0.000;2024-02-15T04:22:12;99556.81;;;22.65;56.63
84443;BME280;74681;0.000;0.000;2024-02-15T04:24:38;99565.03;;;22.65;56.40
84443;BME280;74681;0.000;0.000;2024-02-15T04:27:06;99562.28;;;22.65;56.41
84443;BME280;74681;0.000;0.000;2024-02-15T04:29:37;99562.56;;;22.63;56.38
84443;BME280;74681;0.000;0.000;2024-02-15T04:32:05;99556.25;;;22.62;56.65
84443;BME280;74681;0.000;0.000;2024-02-15T04:34:34;99562.56;;;22.63;56.26
84443;BME280;74681;0.000;0.000;2024-02-15T04:36:59;99556.56;;;22.61;56.36
84443;BME280;74681;0.000;0.000;2024-02-15T04:39:24;99561.22;;;22.60;56.28
84443;BME280;74681;0.000;0.000;2024-02-15T04:41:52;99558.47;;;22.60;56.33
84443;BME280;74681;0.000;0.000;2024-02-15T04:44:17;99553.00;;;22.60;56.50
84443;BME280;74681;0.000;0.000;2024-02-15T04:46:45;99559.56;;;22.59;56.37
84443;BME280;74681;0.000;0.000;2024-02-15T04:49:10;99566.94;;;22.59;56.36
84443;BME280;74681;0.000;0.000;2024-02-15T04:51:36;99561.22;;;22.60;56.31
84443;BME280;74681;0.000;0.000;2024-02-15T04:54:01;99565.31;;;22.58;56.27
84443;BME280;74681;0.000;0.000;2024-02-15T04:56:27;99565.31;;;22.58;56.23
84443;BME280;74681;0.000;0.000;2024-02-15T04:58:52;99563.69;;;22.57;56.27
84443;BME280;74681;0.000;0.000;2024-02-15T05:01:18;99560.94;;;22.57;56.33
84443;BME280;74681;0.000;0.000;2024-02-15T05:03:44;99562.84;;;22.56;56.46
84443;BME280;74681;0.000;0.000;2024-02-15T05:06:09;99566.72;;;22.55;56.31
84443;BME280;74681;0.000;0.000;2024-02-15T05:08:36;99562.03;;;22.56;56.31
84443;BME280;74681;0.000;0.000;2024-02-15T05:11:08;99566.72;;;22.55;56.50
84443;BME280;74681;0.000;0.000;2024-02-15T05:13:38;99565.88;;;22.55;56.28
84443;BME280;74681;0.000;0.000;2024-02-15T05:16:03;99570.25;;;22.56;56.33
84443;BME280;74681;0.000;0.000;2024-02-15T05:18:29;99572.19;;;22.55;56.40
84443;BME280;74681;0.000;0.000;2024-02-15T05:20:55;99571.38;;;22.55;56.28
84443;BME280;74681;0.000;0.000;2024-02-15T05:23:21;99577.94;;;22.54;56.31
84443;BME280;74681;0.000;0.000;2024-02-15T05:25:46;99577.94;;;22.54;56.35
84443;BME280;74681;0.000;0.000;2024-02-15T05:28:12;99591.59;;;22.54;56.50
84443;BME280;74681;0.000;0.000;2024-02-15T05:30:37;99582.31;;;22.55;56.51
84443;BME280;74681;0.000;0.000;2024-02-15T05:33:04;99590.78;;;22.53;56.60
84443;BME280;74681;0.000;0.000;2024-02-15T05:35:29;99589.97;;;22.53;56.49
84443;BME280;74681;0.000;0.000;2024-02-15T05:37:54;99594.63;;;22.52;56.34
84443;BME280;74681;0.000;0.000;2024-02-15T05:40:21;99597.38;;;22.52;56.30
84443;BME280;74681;0.000;0.000;2024-02-15T05:42:46;99599.28;;;22.52;56.31
84443;BME280;74681;0.000;0.000;2024-02-15T05:45:27;99604.75;;;22.52;56.37
84443;BME280;74681;0.000;0.000;2024-02-15T05:47:54;99596.56;;;22.52;56.44
84443;BME280;74681;0.000;0.000;2024-02-15T05:50:20;99601.19;;;22.51;56.40
84443;BME280;74681;0.000;0.000;2024-02-15T05:52:49;99606.69;;;22.51;56.41
84443;BME280;74681;0.000;0.000;2024-02-15T05:55:14;99598.47;;;22.51;56.36
84443;BME280;74681;0.000;0.000;2024-02-15T05:57:44;99603.13;;;22.51;56.33
84443;BME280;74681;0.000;0.000;2024-02-15T06:00:09;99603.94;;;22.51;56.31
84443;BME280;74681;0.000;0.000;2024-02-15T06:02:35;99603.13;;;22.51;56.50
84443;BME280;74681;0.000;0.000;2024-02-15T06:05:00;99605.03;;;22.50;56.32
84443;BME280;74681;0.000;0.000;2024-02-15T06:07:29;99610.50;;;22.50;56.31
84443;BME280;74681;0.000;0.000;2024-02-15T06:09:54;99606.97;;;22.50;56.51
84443;BME280;74681;0.000;0.000;2024-02-15T06:12:20;99613.22;;;22.50;56.33
84443;BME280;74681;0.000;0.000;2024-02-15T06:14:45;99614.34;;;22.49;56.40
84443;BME280;74681;0.000;0.000;2024-02-15T06:17:11;99606.16;;;22.49;56.64
84443;BME280;74681;0.000;0.000;2024-02-15T06:19:36;99618.44;;;22.52;56.74
84443;BME280;74681;0.000;0.000;2024-02-15T06:22:02;99616.25;;;22.54;56.70
84443;BME280;74681;0.000;0.000;2024-02-15T06:24:29;99624.19;;;22.55;56.73
84443;BME280;74681;0.000;0.000;2024-02-15T06:26:54;99630.75;;;22.54;56.87
84443;BME280;74681;0.000;0.000;2024-02-15T06:29:24;99634.03;;;22.56;57.05
84443;BME280;74681;0.000;0.000;2024-02-15T06:32:09;99632.09;;;22.57;56.79
84443;BME280;74681;0.000;0.000;2024-02-15T06:34:52;99631.28;;;22.56;56.82
84443;BME280;74681;0.000;0.000;2024-02-15T06:37:37;99637.31;;;22.64;58.14
84443;BME280;74681;0.000;0.000;2024-02-15T06:40:21;99634.25;;;22.70;59.07
84443;BME280;74681;0.000;0.000;2024-02-15T06:42:47;99636.72;;;22.77;59.12
84443;BME280;74681;0.000;0.000;2024-02-15T06:45:13;99632.31;;;22.76;59.08
84443;BME280;74681;0.000;0.000;2024-02-15T06:47:41;99632.63;;;22.74;59.12
84443;BME280;74681;0.000;0.000;2024-02-15T06:52:34;99634.25;;;22.70;58.33
84443;BME280;74681;0.000;0.000;2024-02-15T06:54:59;99647.16;;;22.70;58.02
84443;BME280;74681;0.000;0.000;2024-02-15T06:57:25;99645.50;;;22.69;58.10
84443;BME280;74681;0.000;0.000;2024-02-15T06:59:51;99640.28;;;22.67;57.63
84443;BME280;74681;0.000;0.000;2024-02-15T07:02:16;99642.78;;;22.69;58.11
84443;BME280;74681;0.000;0.000;2024-02-15T07:04:43;99642.47;;;22.70;57.75
84443;BME280;74681;0.000;0.000;2024-02-15T07:07:10;99637.00;;;22.70;57.88
84443;BME280;74681;0.000;0.000;2024-02-15T07:09:35;99650.13;;;22.73;58.00
84443;BME280;74681;0.000;0.000;2024-02-15T07:12:00;99652.03;;;22.73;57.58
84443;BME280;74681;0.000;0.000;2024-02-15T07:14:26;99649.91;;;22.70;57.57
84443;BME280;74681;0.000;0.000;2024-02-15T07:16:53;99652.63;;;22.70;57.33
84443;BME280;74681;0.000;0.000;2024-02-15T07:19:21;99646.59;;;22.68;57.03
84443;BME280;74681;0.000;0.000;2024-02-15T07:21:47;99649.63;;;22.66;57.00
84443;BME280;74681;0.000;0.000;2024-02-15T07:24:12;99662.50;;;22.66;56.81
84443;BME280;74681;0.000;0.000;2024-02-15T07:26:38;99655.38;;;22.65;56.69
84443;BME280;74681;0.000;0.000;2024-02-15T07:29:04;99660.00;;;22.64;56.36
84443;BME280;74681;0.000;0.000;2024-02-15T07:31:32;99663.84;;;22.63;56.27
84443;BME280;74681;0.000;0.000;2024-02-15T07:33:58;99660.28;;;22.62;56.43
84443;BME280;74681;0.000;0.000;2024-02-15T07:36:24;99664.69;;;22.64;56.14
84443;BME280;74681;0.000;0.000;2024-02-15T07:38:50;99660.00;;;22.64;56.37
84443;BME280;74681;0.000;0.000;2024-02-15T07:41:17;99659.22;;;22.64;56.14
84443;BME280;74681;0.000;0.000;2024-02-15T07:43:43;99655.63;;;22.63;56.17
84443;BME280;74681;0.000;0.000;2024-02-15T07:46:12;99662.75;;;22.64;56.15
84443;BME280;74681;0.000;0.000;2024-02-15T07:48:39;99660.00;;;22.64;56.06
84443;BME280;74681;0.000;0.000;2024-02-15T07:51:09;99667.44;;;22.64;55.92
84443;BME280;74681;0.000;0.000;2024-02-15T07:53:35;99658.38;;;22.63;56.02
84443;BME280;74681;0.000;0.000;2024-02-15T07:56:00;99659.44;;;22.62;56.07
84443;BME280;74681;0.000;0.000;2024-02-15T07:58:25;99659.44;;;22.62;56.05
84443;BME280;74681;0.000;0.000;2024-02-15T08:00:51;99668.50;;;22.62;56.00
84443;BME280;74681;0.000;0.000;2024-02-15T08:03:16;99665.75;;;22.62;55.94
84443;BME280;74681;0.000;0.000;2024-02-15T08:05:41;99664.94;;;22.62;55.85
84443;BME280;74681;0.000;0.000;2024-02-15T08:08:07;99661.38;;;22.61;55.70
84443;BME280;74681;0.000;0.000;2024-02-15T08:10:32;99667.66;;;22.62;55.81
84443;BME280;74681;0.000;0.000;2024-02-15T08:12:58;99667.66;;;22.62;55.67
84443;BME280;74681;0.000;0.000;2024-02-15T08:15:24;99670.41;;;22.62;55.86
84443;BME280;74681;0.000;0.000;2024-02-15T08:17:52;99670.41;;;22.62;55.72
84443;BME280;74681;0.000;0.000;2024-02-15T08:20:20;99669.56;;;22.61;55.72
84443;BME280;74681;0.000;0.000;2024-02-15T08:22:46;99664.94;;;22.62;55.72
84443;BME280;74681;0.000;0.000;2024-02-15T08:25:12;99669.56;;;22.61;55.74
84443;BME280;74681;0.000;0.000;2024-02-15T08:27:38;99664.09;;;22.61;55.41
84443;BME280;74681;0.000;0.000;2024-02-15T08:30:11;99667.66;;;22.62;55.86
84443;BME280;74681;0.000;0.000;2024-02-15T08:32:40;99666.84;;;22.61;55.43
84443;BME280;74681;0.000;0.000;2024-02-15T08:35:09;99669.56;;;22.61;55.49
84443;BME280;74681;0.000;0.000;2024-02-15T08:37:35;99656.81;;;22.32;52.03
84443;BME280;74681;0.000;0.000;2024-02-15T08:40:02;99656.78;;;22.37;53.57
84443;BME280;74681;0.000;0.000;2024-02-15T08:42:28;99662.81;;;22.44;53.80
84443;BME280;74681;0.000;0.000;2024-02-15T08:44:53;99658.97;;;22.45;53.73
84443;BME280;74681;0.000;0.000;2024-02-15T08:47:18;99660.59;;;22.46;53.58
84443;BME280;74681;0.000;0.000;2024-02-15T08:49:44;99661.44;;;22.46;53.66
84443;BME280;74681;0.000;0.000;2024-02-15T08:52:09;99655.13;;;22.46;53.46
84443;BME280;74681;0.000;0.000;2024-02-15T08:54:35;99662.25;;;22.47;53.77
84443;BME280;74681;0.000;0.000;2024-02-15T08:57:03;99661.44;;;22.46;53.62
84443;BME280;74681;0.000;0.000;2024-02-15T08:59:29;99657.56;;;22.47;53.56
84443;BME280;74681;0.000;0.000;2024-02-15T09:01:55;99659.53;;;22.47;53.65
84443;BME280;74681;0.000;0.000;2024-02-15T09:04:21;99667.72;;;22.47;53.78
84443;BME280;74681;0.000;0.000;2024-02-15T09:06:48;99674.00;;;22.47;53.79
84443;BME280;74681;0.000;0.000;2024-02-15T09:09:14;99671.25;;;22.47;53.99
84443;BME280;74681;0.000;0.000;2024-02-15T09:11:39;99667.44;;;22.48;53.65
84443;BME280;74681;0.000;0.000;2024-02-15T09:14:04;99663.88;;;22.48;53.67
84443;BME280;74681;0.000;0.000;2024-02-15T09:16:30;99671.25;;;22.47;53.81
84443;BME280;74681;0.000;0.000;2024-02-15T09:18:56;99680.28;;;22.48;53.77
84443;BME280;74681;0.000;0.000;2024-02-15T09:21:25;99678.94;;;22.45;53.31
84443;BME280;74681;0.000;0.000;2024-02-15T09:23:53;99669.38;;;22.43;53.22
84443;BME280;74681;0.000;0.000;2024-02-15T09:26:18;99671.03;;;22.44;53.46
84443;BME280;74681;0.000;0.000;2024-02-15T09:28:44;99667.16;;;22.45;53.45
84443;BME280;74681;0.000;0.000;2024-02-15T09:31:12;99669.91;;;22.45;53.35
84443;BME280;74681;0.000;0.000;2024-02-15T09:33:38;99669.91;;;22.45;53.47
84443;BME280;74681;0.000;0.000;2024-02-15T09:36:04;99670.72;;;22.45;53.20
84443;BME280;74681;0.000;0.000;2024-02-15T09:38:29;99669.91;;;22.45;53.46
84443;BME280;74681;0.000;0.000;2024-02-15T09:40:54;99662.53;;;22.45;53.44
84443;BME280;74681;0.000;0.000;2024-02-15T09:43:20;99669.91;;;22.45;53.35
84443;BME280;74681;0.000;0.000;2024-02-15T09:45:46;99665.25;;;22.45;53.30
84443;BME280;74681;0.000;0.000;2024-02-15T09:48:12;99665.25;;;22.45;53.30
84443;BME280;74681;0.000;0.000;2024-02-15T09:50:39;99663.34;;;22.46;53.28
84443;BME280;74681;0.000;0.000;2024-02-15T09:53:07;99667.16;;;22.45;53.48
84443;BME280;74681;0.000;0.000;2024-02-15T09:55:34;99665.25;;;22.45;53.31
84443;BME280;74681;0.000;0.000;2024-02-15T09:58:00;99660.59;;;22.46;53.25
84443;BME280;74681;0.000;0.000;2024-02-15T10:00:25;99659.78;;;22.45;53.20
84443;BME280;74681;0.000;0.000;2024-02-15T10:02:52;99668.81;;;22.46;53.42
84443;BME280;74681;0.000;0.000;2024-02-15T10:05:21;99662.25;;;22.47;53.37
84443;BME280;74681;0.000;0.000;2024-02-15T10:07:48;99669.63;;;22.46;53.33
84443;BME280;74681;0.000;0.000;2024-02-15T10:12:42;99677.84;;;22.46;53.54
84443;BME280;74681;0.000;0.000;2024-02-15T10:15:08;99681.41;;;22.47;53.38
84443;BME280;74681;0.000;0.000;2024-02-15T10:17:34;99675.13;;;22.46;53.26
84443;BME280;74681;0.000;0.000;2024-02-15T10:20:04;99673.22;;;22.47;53.51
84443;BME280;74681;0.000;0.000;2024-02-15T10:22:30;99674.81;;;22.48;53.22
84443;BME280;74681;0.000;0.000;2024-02-15T10:27:40;99678.69;;;22.47;53.28
84443;BME280;74681;0.000;0.000;2024-02-15T10:32:52;99680.28;;;22.48;53.49
84443;BME280;74681;0.000;0.000;2024-02-15T10:35:21;99674.81;;;22.48;53.32
84443;BME280;74681;0.000;0.000;2024-02-15T10:37:47;99677.56;;;22.48;53.34
84443;BME280;74681;0.000;0.000;2024-02-15T10:40:14;99679.47;;;22.47;53.27
84443;BME280;74681;0.000;0.000;2024-02-15T10:42:42;99675.66;;;22.48;53.49
84443;BME280;74681;0.000;0.000;2024-02-15T10:45:08;99670.19;;;22.48;53.51
84443;BME280;74681;0.000;0.000;2024-02-15T10:47:37;99661.97;;;22.48;53.45
84443;BME280;74681;0.000;0.000;2024-02-15T10:50:02;99669.09;;;22.49;53.29
84443;BME280;74681;0.000;0.000;2024-02-15T10:52:29;99665.53;;;22.49;53.25
84443;BME280;74681;0.000;0.000;2024-02-15T10:55:01;99668.25;;;22.49;53.36
84443;BME280;74681;0.000;0.000;2024-02-15T10:57:29;99658.97;;;22.50;53.48
84443;BME280;74681;0.000;0.000;2024-02-15T10:59:58;99653.50;;;22.50;53.37
84443;BME280;74681;0.000;0.000;2024-02-15T11:02:39;99656.50;;;22.48;53.52
84443;BME280;74681;0.000;0.000;2024-02-15T11:05:08;99656.22;;;22.50;53.47
84443;BME280;74681;0.000;0.000;2024-02-15T11:07:35;99662.50;;;22.50;53.45
84443;BME280;74681;0.000;0.000;2024-02-15T11:10:01;99657.03;;;22.50;53.50
84443;BME280;74681;0.000;0.000;2024-02-15T11:12:27;99650.75;;;22.50;53.22
84443;BME280;74681;0.000;0.000;2024-02-15T11:14:53;99650.75;;;22.50;53.48
84443;BME280;74681;0.000;0.000;2024-02-15T11:18:04;99653.50;;;22.50;53.49
84443;BME280;74681;0.000;0.000;2024-02-15T11:20:07;99652.38;;;22.51;53.32
84443;BME280;74681;0.000;0.000;2024-02-15T11:22:37;99646.06;;;22.50;53.34
84443;BME280;74681;0.000;0.000;2024-02-15T11:25:04;99642.53;;;22.50;53.17
84443;BME280;74681;0.000;0.000;2024-02-15T11:27:35;99650.75;;;22.50;53.27
84443;BME280;74681;0.000;0.000;2024-02-15T11:30:05;99651.56;;;22.50;53.15
84443;BME280;74681;0.000;0.000;2024-02-15T11:32:46;99647.19;;;22.49;53.13
84443;BME280;74681;0.000;0.000;2024-02-15T11:35:32;99648.03;;;22.50;53.42
84443;BME280;74681;0.000;0.000;2024-02-15T11:37:57;99645.28;;;22.50;53.21
84443;BME280;74681;0.000;0.000;2024-02-15T11:42:58;99648.28;;;22.48;53.01
84443;BME280;74681;0.000;0.000;2024-02-15T11:45:24;99647.47;;;22.48;53.20
84443;BME280;74681;0.000;0.000;2024-02-15T11:47:51;99654.56;;;22.49;53.11
84443;BME280;74681;0.000;0.000;2024-02-15T11:50:17;99651.84;;;22.49;53.02
84443;BME280;74681;0.000;0.000;2024-02-15T11:52:46;99649.09;;;22.49;53.11
84443;BME280;74681;0.000;0.000;2024-02-15T11:55:13;99647.19;;;22.49;53.02
84443;BME280;74681;0.000;0.000;2024-02-15T11:57:39;99646.38;;;22.49;53.01
84443;BME280;74681;0.000;0.000;2024-02-15T12:00:22;99640.91;;;22.49;53.16
84443;BME280;74681;0.000;0.000;2024-02-15T12:03:06;99635.44;;;22.49;52.89
84443;BME280;74681;0.000;0.000;2024-02-15T12:05:50;99636.25;;;22.49;53.13
84443;BME280;74681;0.000;0.000;2024-02-15T12:08:34;99629.94;;;22.49;52.91
84443;BME280;74681;0.000;0.000;2024-02-15T12:11:18;99642.81;;;22.48;53.04
84443;BME280;74681;0.000;0.000;2024-02-15T12:14:02;99629.94;;;22.49;52.85
84443;BME280;74681;0.000;0.000;2024-02-15T12:16:46;99631.88;;;22.48;53.11
84443;BME280;74681;0.000;0.000;2024-02-15T12:19:30;99634.59;;;22.48;52.91
84443;BME280;74681;0.000;0.000;2024-02-15T12:21:56;99635.44;;;22.49;53.01
84443;BME280;74681;0.000;0.000;2024-02-15T12:24:22;99634.59;;;22.48;52.99
84443;BME280;74681;0.000;0.000;2024-02-15T12:26:51;99631.88;;;22.48;53.07
84443;BME280;74681;0.000;0.000;2024-02-15T12:29:17;99626.38;;;22.48;53.05
84443;BME280;74681;0.000;0.000;2024-02-15T12:31:43;99636.50;;;22.48;52.79
84443;BME280;74681;0.000;0.000;2024-02-15T12:34:09;99631.59;;;22.50;53.10
84443;BME280;74681;0.000;0.000;2024-02-15T12:36:35;99630.78;;;22.49;52.86
84443;BME280;74681;0.000;0.000;2024-02-15T12:39:04;99631.88;;;22.48;52.86
84443;BME280;74681;0.000;0.000;2024-02-15T12:41:39;99624.47;;;22.49;53.11
84443;BME280;74681;0.000;0.000;2024-02-15T12:44:07;99627.22;;;22.49;52.88
84443;BME280;74681;0.000;0.000;2024-02-15T12:46:36;99628.88;;;22.50;53.01
84443;BME280;74681;0.000;0.000;2024-02-15T12:49:09;99621.44;;;22.50;52.89
84443;BME280;74681;0.000;0.000;2024-02-15T12:51:38;99620.66;;;22.50;52.95
84443;BME280;74681;0.000;0.000;2024-02-15T12:54:07;99623.66;;;22.48;52.79
84443;BME280;74681;0.000;0.000;2024-02-15T12:56:33;99617.09;;;22.49;52.80
84443;BME280;74681;0.000;0.000;2024-02-15T12:58:58;99615.19;;;22.50;52.91
84443;BME280;74681;0.000;0.000;2024-02-15T13:01:24;99615.97;;;22.50;52.97
84443;BME280;74681;0.000;0.000;2024-02-15T13:03:51;99614.34;;;22.49;52.96
84443;BME280;74681;0.000;0.000;2024-02-15T13:06:16;99615.19;;;22.50;53.01
84443;BME280;74681;0.000;0.000;2024-02-15T13:08:43;99613.22;;;22.50;52.96
84443;BME280;74681;0.000;0.000;2024-02-15T13:11:13;99606.16;;;22.49;52.98
84443;BME280;74681;0.000;0.000;2024-02-15T13:13:40;99598.75;;;22.50;52.35
84443;BME280;74681;0.000;0.000;2024-02-15T13:16:07;99599.56;;;22.50;52.62
84443;BME280;74681;0.000;0.000;2024-02-15T13:18:33;99594.91;;;22.51;52.86
84443;BME280;74681;0.000;0.000;2024-02-15T13:20:58;99594.06;;;22.50;52.72
84443;BME280;74681;0.000;0.000;2024-02-15T13:23:23;99584.78;;;22.51;52.84
84443;BME280;74681;0.000;0.000;2024-02-15T13:25:50;99588.59;;;22.50;52.60
84443;BME280;74681;0.000;0.000;2024-02-15T13:28:17;99586.69;;;22.51;52.66
84443;BME280;74681;0.000;0.000;2024-02-15T13:30:43;99579.31;;;22.51;52.70
84443;BME280;74681;0.000;0.000;2024-02-15T13:33:10;99573.84;;;22.51;52.53